Time;durP1;ratioP1;P1;durP2;ratioP2;P2;SDS_P1;SDS_P2;PMS_P1;PMS_P2;Temp;Humidity;BMP_temperature;BMP_pressure;BME280_temperature;BME280_humidity;BME280_pressure;Samples;Min_cycle;Max_cycle;Signal;HPM_P1;HPM_P2
2022/05/26 00:01:34;;;;;;;1.45;0.80;;;16.50;52.90;;;12.79;69.51;96059.25;5057317;28;20059;-50
2022/05/26 00:04:07;;;;;;;2.17;0.80;;;16.40;53.20;;;12.76;69.69;96058.97;5075421;28;20368;-51
2022/05/26 00:06:33;;;;;;;3.83;0.90;;;16.40;53.50;;;12.70;70.07;96053.63;5057575;28;20032;-54
2022/05/26 00:09:11;;;;;;;5.13;0.80;;;16.40;53.50;;;12.66;70.98;96054.41;5075706;28;20084;-49
2022/05/26 00:11:38;;;;;;;1.10;0.80;;;16.40;54.00;;;12.63;70.77;96057.59;5057171;28;20024;-49
2022/05/26 00:14:10;;;;;;;1.00;0.70;;;16.30;53.90;;;12.62;70.02;96058.69;5073830;28;20181;-49
2022/05/26 00:16:42;;;;;;;2.95;1.00;;;16.30;54.10;;;12.57;71.85;96056.81;5075028;28;20028;-49
2022/05/26 00:19:17;;;;;;;1.67;0.85;;;16.30;54.40;;;12.58;71.29;96062.94;5057278;28;20024;-50
2022/05/26 00:21:49;;;;;;;1.55;0.80;;;16.20;54.50;;;12.57;71.42;96066.69;5074998;28;20025;-51
2022/05/26 00:24:18;;;;;;;3.92;1.00;;;16.20;54.70;;;12.51;71.29;96063.22;5074983;28;20029;-49
2022/05/26 00:26:44;;;;;;;3.00;0.80;;;16.20;54.60;;;12.49;70.98;96068.00;5057225;28;20714;-49
2022/05/26 00:29:11;;;;;;;5.10;0.88;;;16.10;54.60;;;12.47;71.96;96062.13;5074767;28;20040;-49
2022/05/26 00:31:43;;;;;;;1.80;0.70;;;16.10;54.80;;;12.41;72.25;96063.16;5056862;28;20031;-51
2022/05/26 00:34:15;;;;;;;1.27;0.90;;;16.10;55.20;;;12.43;72.48;96069.88;5056743;28;20491;-50
2022/05/26 00:36:42;;;;;;;2.40;1.08;;;16.10;55.30;;;12.42;72.12;96065.59;5074419;28;20514;-51
2022/05/26 00:39:22;;;;;;;1.13;0.80;;;16.10;55.20;;;12.38;72.09;96077.88;5074859;28;20130;-54
2022/05/26 00:41:54;;;;;;;2.78;1.20;;;16.10;55.50;;;12.35;72.96;96078.41;5074113;28;20104;-51
2022/05/26 00:44:34;;;;;;;1.10;1.00;;;16.10;55.50;;;12.33;72.94;96071.72;5074600;28;20219;-52
2022/05/26 00:47:27;;;;;;;7.28;1.02;;;16.10;55.80;;;12.24;74.33;96072.22;5056303;28;20586;-50
2022/05/26 00:50:03;;;;;;;2.90;1.45;;;16.00;56.00;;;12.25;74.72;96070.34;5038759;28;20036;-52
2022/05/26 00:53:46;;;;;;;4.55;0.98;;;16.00;56.10;;;12.17;74.60;96068.19;5054375;28;20091;-49
2022/05/26 00:56:32;;;;;;;2.10;0.90;;;15.90;56.20;;;12.15;74.58;96073.78;4953966;28;20090;-50
2022/05/26 00:59:16;;;;;;;4.97;1.02;;;15.90;56.40;;;12.08;75.00;96073.25;4965599;28;20142;-50
2022/05/26 01:01:52;;;;;;;3.80;1.20;;;15.80;56.50;;;12.03;75.36;96068.69;4992544;28;20038;-53
2022/05/26 01:04:30;;;;;;;3.33;1.08;;;15.80;56.80;;;12.03;75.95;96076.72;4976743;28;20042;-52
2022/05/26 01:07:22;;;;;;;1.75;1.15;;;15.80;56.80;;;12.01;76.43;96070.03;4992514;28;20042;-54
2022/05/26 01:09:48;;;;;;;4.00;1.02;;;15.80;57.20;;;12.03;76.15;96074.03;4976551;28;20027;-52
2022/05/26 01:12:14;;;;;;;1.65;0.90;;;15.70;57.00;;;12.05;76.04;96071.09;4992543;28;20040;-50
2022/05/26 01:15:02;;;;;;;2.80;1.00;;;15.70;57.20;;;12.05;75.71;96071.09;4992270;28;20049;-49
2022/05/26 01:18:41;;;;;;;3.78;1.13;;;15.70;57.50;;;12.06;75.43;96069.22;4977670;28;20038;-52
2022/05/26 01:21:44;;;;;;;2.20;1.02;;;15.80;57.50;;;12.04;75.35;96070.28;4953696;29;20039;-54
2022/05/26 01:25:12;;;;;;;4.27;1.00;;;15.80;57.40;;;12.04;75.61;96074.84;4992383;28;20088;-48
2022/05/26 01:27:44;;;;;;;3.17;1.50;;;15.70;57.40;;;12.03;75.31;96075.88;5073960;28;20083;-49
2022/05/26 01:30:41;;;;;;;3.63;1.07;;;15.70;57.20;;;11.96;75.44;96073.47;5056493;28;20025;-53
2022/05/26 01:33:32;;;;;;;1.90;1.33;;;15.70;57.50;;;11.90;76.08;96063.81;5058220;28;20051;-50
2022/05/26 01:36:38;;;;;;;2.22;1.10;;;15.70;57.80;;;11.84;76.25;96067.50;5020155;28;20033;-52
2022/05/26 01:39:32;;;;;;;3.38;1.10;;;15.60;57.90;;;11.79;75.48;96065.63;5045157;28;20411;-49
2022/05/26 01:42:20;;;;;;;2.92;1.17;;;15.60;57.80;;;11.74;75.48;96072.78;5056326;28;20526;-53
2022/05/26 01:45:15;;;;;;;1.88;1.10;;;15.50;57.80;;;11.69;75.61;96070.91;5055281;28;20112;-50
2022/05/26 01:48:20;;;;;;;2.13;0.75;;;15.40;57.90;;;11.62;76.62;96078.34;5040467;28;20131;-49
2022/05/26 01:51:41;;;;;;;2.33;1.02;;;15.40;58.00;;;11.53;76.01;96082.53;5047954;28;20113;-52
2022/05/26 01:54:56;;;;;;;1.85;1.02;;;15.30;58.10;;;11.38;76.38;96079.81;5056481;28;20399;-50
2022/05/26 01:57:45;;;;;;;3.88;1.10;;;15.20;58.10;;;11.25;76.82;96073.88;5055895;28;20483;-49
2022/05/26 02:00:18;;;;;;;1.20;1.00;;;15.10;58.10;;;11.18;76.84;96078.59;5055187;28;20063;-54
2022/05/26 02:03:06;;;;;;;1.30;1.00;;;15.00;58.40;;;11.08;76.98;96071.31;5055293;28;20026;-51
2022/05/26 02:05:59;;;;;;;5.53;0.98;;;14.90;58.50;;;10.96;77.56;96073.38;5038840;28;20017;-49
2022/05/26 02:08:37;;;;;;;2.65;1.10;;;14.80;58.60;;;10.85;78.25;96067.16;5058051;28;20040;-51
2022/05/26 02:11:21;;;;;;;4.45;1.48;;;14.70;58.80;;;10.79;78.39;96072.69;5055550;28;20047;-52
2022/05/26 02:13:59;;;;;;;2.30;1.00;;;14.60;59.00;;;10.69;78.41;96064.63;5055178;28;20033;-49
2022/05/26 02:16:49;;;;;;;2.78;1.23;;;14.50;59.10;;;10.60;78.56;96065.06;5054978;28;20029;-52
2022/05/26 02:19:40;;;;;;;4.32;1.17;;;14.50;59.30;;;10.50;78.94;96072.97;5071468;28;20103;-50
2022/05/26 02:22:21;;;;;;;1.55;1.00;;;14.30;59.30;;;10.38;79.16;96064.34;5055215;28;20055;-49
2022/05/26 02:25:19;;;;;;;3.28;1.10;;;14.20;59.50;;;10.30;79.42;96078.09;5072486;28;20055;-52
2022/05/26 02:27:53;;;;;;;3.53;1.13;;;14.20;59.80;;;10.23;80.22;96077.47;5072622;28;20028;-51
2022/05/26 02:30:41;;;;;;;2.83;1.00;;;14.10;59.90;;;10.20;79.83;96081.41;5054903;28;20562;-54
2022/05/26 02:33:30;;;;;;;5.45;1.30;;;14.00;59.90;;;10.16;79.58;96088.31;5040172;28;20053;-50
2022/05/26 02:35:57;;;;;;;3.60;1.10;;;14.00;60.30;;;10.12;79.75;96081.84;5072431;28;20025;-49
2022/05/26 02:38:26;;;;;;;2.35;1.20;;;13.90;60.10;;;10.10;79.78;96075.97;5038473;28;20020;-48
2022/05/26 02:41:04;;;;;;;1.35;1.10;;;13.90;60.40;;;10.09;79.53;96083.16;5054419;28;20021;-50
2022/05/26 02:43:34;;;;;;;2.47;0.90;;;13.90;60.80;;;10.08;79.44;96083.41;5072262;28;20098;-49
2022/05/26 02:46:24;;;;;;;2.47;0.90;;;13.90;60.70;;;10.10;79.66;96079.44;5071413;28;20049;-50
2022/05/26 02:49:27;;;;;;;2.33;0.80;;;13.90;61.10;;;10.12;79.11;96082.69;5072286;28;20103;-57
2022/05/26 02:52:02;;;;;;;1.70;0.88;;;13.90;61.10;;;10.17;78.88;96084.56;5056434;28;20047;-57
2022/05/26 02:54:57;;;;;;;2.42;0.88;;;13.90;60.90;;;10.27;78.78;96083.91;5072146;28;20037;-57
2022/05/26 02:57:43;;;;;;;3.17;1.10;;;14.00;61.10;;;10.34;79.46;96089.84;5055699;28;20066;-54
2022/05/26 03:00:49;;;;;;;4.88;2.20;;;14.00;61.00;;;10.39;79.18;96082.72;5072208;28;20394;-54
2022/05/26 03:03:53;;;;;;;3.22;0.80;;;14.10;61.10;;;10.47;78.12;96088.66;5054023;28;20029;-57
2022/05/26 03:06:28;;;;;;;2.50;0.75;;;14.20;60.80;;;10.55;76.50;96093.53;5039876;28;20040;-57
2022/05/26 03:09:13;;;;;;;2.25;0.80;;;14.30;60.60;;;10.64;74.88;96086.69;5054963;28;20033;-53
2022/05/26 03:11:57;;;;;;;2.80;0.93;;;14.40;60.30;;;10.78;74.54;96092.38;5054296;28;20032;-52
2022/05/26 03:14:29;;;;;;;1.92;0.70;;;14.50;60.00;;;10.84;73.71;96094.88;5070763;28;20060;-54
2022/05/26 03:16:55;;;;;;;2.13;0.87;;;14.60;59.80;;;10.95;73.92;96098.41;5054032;28;20074;-52
2022/05/26 03:19:24;;;;;;;1.95;0.60;;;14.70;59.60;;;11.07;74.14;96108.91;5054115;28;20422;-52
2022/05/26 03:21:50;;;;;;;1.33;0.82;;;14.80;59.60;;;11.15;74.28;96108.44;5054071;28;20059;-56
2022/05/26 03:24:16;;;;;;;0.52;0.52;;;14.90;59.50;;;11.22;75.54;96110.88;5054077;28;20052;-56
2022/05/26 03:26:42;;;;;;;4.20;1.00;;;15.00;59.60;;;11.27;74.92;96106.41;5072119;28;20029;-57
2022/05/26 03:29:10;;;;;;;0.80;0.60;;;15.00;59.50;;;11.34;75.90;96111.50;5071881;28;20411;-57
2022/05/26 03:31:44;;;;;;;3.47;0.80;;;15.10;59.60;;;11.37;76.08;96110.19;5071885;28;20368;-57
2022/05/26 03:42:51;;;;;;;1.67;0.88;;;15.20;59.20;;;11.47;73.14;96120.94;5057213;28;20125;-57
2022/05/26 03:45:22;;;;;;;2.50;0.77;;;15.20;59.00;;;11.50;74.86;96123.09;5053723;28;20117;-59
2022/05/26 03:47:54;;;;;;;3.38;0.77;;;15.30;59.10;;;11.53;74.16;96115.41;5072375;28;20045;-56
2022/05/26 03:50:23;;;;;;;1.63;0.70;;;15.30;59.00;;;11.58;73.95;96126.06;5066055;28;20037;-51
2022/05/26 03:52:48;;;;;;;4.13;0.80;;;15.40;59.00;;;11.59;74.11;96121.53;5051720;28;20029;-52
2022/05/26 03:55:19;;;;;;;2.75;0.85;;;15.40;58.90;;;11.61;74.54;96126.63;5051633;28;20017;-56
2022/05/26 03:57:45;;;;;;;1.30;0.77;;;15.40;59.00;;;11.61;75.19;96122.09;5051695;28;20444;-56
2022/05/26 04:00:12;;;;;;;0.85;0.70;;;15.50;59.00;;;11.64;74.26;96131.47;5040332;28;20031;-53
2022/05/26 04:02:39;;;;;;;1.60;0.80;;;15.50;59.00;;;11.64;75.54;96126.13;5071561;28;20052;-55
2022/05/26 04:05:05;;;;;;;1.75;0.95;;;15.50;59.00;;;11.68;74.59;96122.66;5071697;28;20035;-57
2022/05/26 04:07:31;;;;;;;3.75;0.82;;;15.50;59.00;;;11.67;74.34;96129.06;5053764;28;20020;-56
2022/05/26 04:09:57;;;;;;;3.30;0.65;;;15.50;58.90;;;11.67;73.95;96131.75;5053878;28;20027;-57
2022/05/26 04:12:32;;;;;;;1.15;0.70;;;15.50;58.80;;;11.63;74.01;96127.19;5071678;28;20028;-55
2022/05/26 04:15:06;;;;;;;3.13;1.48;;;15.60;58.80;;;11.58;73.20;96141.28;5054319;28;20040;-57
2022/05/26 04:17:33;;;;;;;2.55;0.73;;;15.60;58.70;;;11.55;74.38;96139.94;5040636;28;20506;-57
2022/05/26 04:19:58;;;;;;;4.28;0.90;;;15.60;58.60;;;11.59;73.99;96148.22;5075076;28;20094;-56
2022/05/26 04:22:27;;;;;;;1.88;0.65;;;15.50;58.50;;;11.60;73.61;96147.19;5075082;28;20028;-57
2022/05/26 04:24:58;;;;;;;0.77;0.60;;;15.60;58.60;;;11.64;73.68;96158.13;5074959;28;20116;-57
2022/05/26 04:27:28;;;;;;;1.80;0.70;;;15.60;58.60;;;11.79;73.82;96158.25;5057097;28;20430;-54
2022/05/26 04:29:54;;;;;;;1.20;0.75;;;15.70;58.50;;;11.89;73.56;96157.53;5074980;28;20078;-55
2022/05/26 04:32:24;;;;;;;0.60;0.60;;;15.70;58.50;;;11.98;73.28;96163.97;5056879;28;20033;-57
2022/05/26 04:34:59;;;;;;;1.73;0.70;;;15.80;58.50;;;12.04;72.85;96163.75;5073347;28;20024;-55
2022/05/26 04:37:27;;;;;;;1.77;0.68;;;15.90;58.40;;;12.07;72.52;96159.75;5040279;28;20054;-56
2022/05/26 04:39:55;;;;;;;1.30;0.52;;;16.00;58.30;;;12.13;72.92;96164.06;5056958;28;20112;-57
2022/05/26 04:42:22;;;;;;;1.13;0.70;;;16.10;58.30;;;12.18;73.03;96168.63;5043815;28;20020;-57
2022/05/26 04:44:54;;;;;;;4.30;0.80;;;16.20;58.20;;;12.23;71.99;96174.00;5074505;28;20044;-57
2022/05/26 04:47:47;;;;;;;1.42;0.60;;;16.30;58.10;;;12.34;72.70;96175.63;5040243;28;20040;-57
2022/05/26 04:50:16;;;;;;;1.33;0.70;;;16.40;58.10;;;12.42;72.17;96166.31;5043399;28;20094;-56
2022/05/26 04:52:42;;;;;;;2.25;0.70;;;16.50;57.80;;;12.47;70.75;96169.81;5074549;28;20082;-56
2022/05/26 04:55:12;;;;;;;2.67;0.75;;;16.60;57.60;;;12.58;69.32;96176.00;5074482;28;20491;-57
2022/05/26 04:57:40;;;;;;;2.83;0.90;;;16.70;57.30;;;12.70;69.82;96175.75;5056801;28;20029;-54
2022/05/26 05:00:12;;;;;;;1.00;0.70;;;16.80;57.20;;;12.79;68.98;96173.38;5073103;28;20024;-57
2022/05/26 05:02:38;;;;;;;2.47;0.88;;;16.90;56.90;;;12.86;68.55;96173.94;5074295;28;20020;-57
2022/05/26 05:05:06;;;;;;;1.52;0.63;;;17.10;56.70;;;12.98;68.82;96179.84;5056169;28;20036;-57
2022/05/26 05:07:32;;;;;;;3.63;1.02;;;17.20;56.60;;;13.07;68.65;96182.81;5056352;28;20025;-57
2022/05/26 05:10:01;;;;;;;3.78;1.10;;;17.20;56.30;;;13.14;68.36;96194.84;5074685;28;20033;-57
2022/05/26 05:12:30;;;;;;;1.13;0.73;;;17.30;56.10;;;13.21;68.30;96189.22;5074539;28;20502;-57
2022/05/26 05:14:56;;;;;;;1.70;0.68;;;17.40;56.00;;;13.30;69.46;96187.66;5072801;28;20056;-57
2022/05/26 05:17:25;;;;;;;0.80;0.70;;;17.50;56.00;;;13.39;69.73;96198.63;5056280;28;20544;-57
2022/05/26 05:19:51;;;;;;;1.92;0.93;;;17.60;56.10;;;13.49;70.02;96192.47;5073876;28;20039;-55
2022/05/26 05:22:52;;;;;;;1.30;0.88;;;17.60;56.10;;;13.57;69.92;96194.59;5055880;28;20024;-56
2022/05/26 05:25:27;;;;;;;2.30;0.70;;;17.70;56.10;;;13.64;70.46;96200.50;5057788;28;20036;-53
2022/05/26 05:28:06;;;;;;;1.30;0.90;;;17.80;56.10;;;13.72;69.14;96202.63;5056145;28;20033;-57
2022/05/26 05:31:04;;;;;;;0.90;0.80;;;18.00;56.00;;;13.84;69.26;96207.72;5057088;28;20048;-57
2022/05/26 05:33:40;;;;;;;1.60;0.90;;;18.10;55.90;;;13.99;68.64;96213.06;5058977;28;20025;-56
2022/05/26 05:36:34;;;;;;;2.65;0.90;;;18.30;55.50;;;14.12;68.63;96203.66;5039702;28;20024;-57
2022/05/26 05:39:03;;;;;;;3.08;0.90;;;18.60;55.50;;;14.33;67.02;96202.53;5041600;28;20057;-57
2022/05/26 05:41:33;;;;;;;1.42;0.80;;;18.80;55.10;;;14.51;64.57;96211.09;5072244;28;20028;-57
2022/05/26 05:44:00;;;;;;;1.23;0.77;;;19.00;54.50;;;14.73;63.44;96208.84;5055824;28;20396;-56
2022/05/26 05:46:34;;;;;;;1.08;0.70;;;19.20;54.00;;;14.96;63.09;96211.94;5072991;28;20044;-52
2022/05/26 05:49:08;;;;;;;3.03;0.90;;;19.40;53.70;;;15.13;60.87;96211.56;5056073;28;20077;-51
2022/05/26 05:51:36;;;;;;;1.70;0.80;;;19.60;52.90;;;15.27;59.84;96215.25;5073012;28;20024;-52
2022/05/26 05:54:02;;;;;;;1.15;0.70;;;19.80;52.50;;;15.41;59.62;96220.78;5073076;28;20028;-50
2022/05/26 05:56:34;;;;;;;3.80;0.93;;;19.90;52.00;;;15.62;59.27;96224.13;5055145;28;20032;-53
2022/05/26 05:59:05;;;;;;;1.77;1.33;;;20.10;51.50;;;15.79;58.16;96226.41;5073108;28;20036;-53
2022/05/26 06:01:32;;;;;;;2.42;0.93;;;20.30;51.10;;;15.92;58.27;96220.41;5072824;28;20032;-55
2022/05/26 06:04:00;;;;;;;2.63;1.10;;;20.40;50.80;;;16.10;57.94;96216.97;5073055;28;20028;-57
2022/05/26 06:06:40;;;;;;;2.78;1.00;;;20.50;50.40;;;16.62;56.39;96223.41;5071623;28;20033;-56
2022/05/26 06:09:15;;;;;;;2.55;1.30;;;20.80;50.00;;;17.13;54.59;96224.69;5073002;28;20074;-56
2022/05/26 06:11:45;;;;;;;5.20;1.00;;;21.20;49.40;;;17.51;52.88;96221.97;5042659;28;20021;-56
2022/05/26 06:14:15;;;;;;;1.50;0.80;;;21.60;48.60;;;17.89;51.87;96216.53;5054602;28;20048;-56
2022/05/26 06:16:46;;;;;;;1.83;0.80;;;21.90;47.90;;;18.26;51.68;96226.41;5054978;28;20032;-57
2022/05/26 06:19:15;;;;;;;1.63;1.00;;;22.20;47.50;;;18.47;49.81;96224.13;5054846;28;20097;-55
2022/05/26 06:21:44;;;;;;;2.53;0.90;;;22.50;46.80;;;18.69;49.45;96220.75;5072777;28;20430;-57
2022/05/26 06:24:12;;;;;;;3.22;1.10;;;22.70;46.20;;;18.89;48.18;96233.03;5072581;28;20118;-57
2022/05/26 06:26:38;;;;;;;3.25;0.80;;;23.00;45.50;;;19.19;48.30;96223.50;5047629;28;20063;-57
2022/05/26 06:37:38;;;;;;;2.85;1.00;;;24.20;42.90;;;19.80;46.44;96242.91;5060161;28;20095;-54
2022/05/26 06:40:06;;;;;;;1.98;0.90;;;24.40;42.00;;;19.92;44.23;96245.06;5067879;28;20078;-52
2022/05/26 06:42:51;;;;;;;2.13;0.70;;;24.50;41.60;;;19.98;44.06;96252.75;5058301;28;20510;-54
2022/05/26 06:45:19;;;;;;;1.25;0.70;;;24.70;40.90;;;19.93;43.94;96246.66;5053539;28;20029;-57
2022/05/26 06:47:45;;;;;;;5.20;1.38;;;24.90;40.40;;;20.14;43.72;96246.97;5018352;28;20041;-56
2022/05/26 06:50:12;;;;;;;3.10;0.80;;;25.10;40.00;;;20.23;43.49;96245.09;5070560;28;20021;-53
2022/05/26 06:52:40;;;;;;;1.63;0.90;;;25.20;39.50;;;20.36;43.27;96248.81;5072163;28;20428;-53
2022/05/26 06:55:08;;;;;;;4.00;0.90;;;25.30;39.10;;;20.36;43.59;96259.66;5049143;28;20041;-54
2022/05/26 06:57:37;;;;;;;1.85;0.90;;;25.30;38.60;;;20.18;43.46;96254.16;5067841;28;20048;-55
2022/05/26 07:00:09;;;;;;;1.00;0.90;;;25.30;38.30;;;19.85;43.83;96256.31;5071096;28;20029;-53
2022/05/26 07:02:38;;;;;;;3.58;1.10;;;25.30;37.80;;;19.81;43.98;96258.84;5062420;28;20107;-52
2022/05/26 07:05:11;;;;;;;4.13;1.17;;;25.10;38.00;;;19.75;45.31;96260.06;5052918;28;20028;-54
2022/05/26 07:07:41;;;;;;;0.98;0.88;;;25.10;38.10;;;19.68;44.81;96259.72;5046772;28;20555;-53
2022/05/26 07:10:09;;;;;;;1.25;0.70;;;25.20;37.90;;;19.73;44.66;96259.56;5054657;28;20103;-52
2022/05/26 07:12:37;;;;;;;2.30;0.82;;;25.20;37.70;;;20.03;45.75;96262.66;5038306;28;20035;-54
2022/05/26 07:15:04;;;;;;;2.60;1.00;;;25.40;37.80;;;20.23;43.05;96264.03;5048084;28;20079;-54
2022/05/26 07:17:36;;;;;;;2.25;0.80;;;25.70;37.20;;;20.63;42.45;96256.00;5046711;28;20035;-57
2022/05/26 07:20:03;;;;;;;2.40;1.27;;;26.20;36.80;;;21.09;42.67;96260.91;5060579;28;20504;-55
2022/05/26 07:22:41;;;;;;;2.67;1.15;;;26.60;36.70;;;21.48;41.16;96261.94;5049120;28;20069;-56
2022/05/26 07:25:08;;;;;;;2.90;1.35;;;27.20;36.00;;;21.70;40.72;96258.28;5061080;28;20033;-52
2022/05/26 07:27:35;;;;;;;1.85;1.10;;;27.70;35.40;;;21.95;40.88;96262.09;5050553;28;20032;-52
2022/05/26 07:30:02;;;;;;;2.30;1.10;;;28.10;35.20;;;22.17;40.71;96251.09;5062758;28;20036;-57
2022/05/26 07:32:34;;;;;;;1.30;1.00;;;28.50;34.30;;;22.32;38.11;96254.41;5047339;28;20029;-53
2022/05/26 07:35:06;;;;;;;2.67;1.17;;;28.80;33.60;;;22.54;37.71;96258.81;5062064;28;20024;-53
2022/05/26 07:43:24;;;;;;;1.25;1.00;;;29.40;31.30;;;22.81;36.78;96261.09;5056135;28;20071;-57
2022/05/26 07:45:50;;;;;;;1.33;1.20;;;29.60;30.70;;;23.18;36.70;96261.41;5052525;28;20508;-53
2022/05/26 07:48:22;;;;;;;1.60;1.20;;;29.90;30.70;;;23.32;35.86;96272.03;5071078;28;20051;-55
2022/05/26 07:50:56;;;;;;;2.17;1.30;;;30.30;30.00;;;23.71;35.85;96273.53;5072796;28;20028;-56
2022/05/26 07:53:22;;;;;;;2.20;1.00;;;30.70;29.60;;;23.87;35.56;96265.56;5074664;28;20072;-55
2022/05/26 07:55:48;;;;;;;3.25;1.45;;;30.70;29.60;;;24.09;35.36;96267.13;5074159;28;20044;-55
2022/05/26 07:58:17;;;;;;;1.40;1.10;;;30.70;29.50;;;24.20;35.30;96268.31;5047442;28;20399;-58
2022/05/26 08:00:52;;;;;;;1.58;1.15;;;31.00;29.00;;;24.35;35.40;96269.59;5070634;28;20021;-57
2022/05/26 08:03:21;;;;;;;2.13;1.30;;;31.30;28.80;;;24.62;34.63;96278.28;5070116;28;20071;-56
2022/05/26 08:05:54;;;;;;;2.38;1.30;;;31.70;28.60;;;25.17;33.43;96270.75;5059230;28;20451;-55
2022/05/26 08:08:26;;;;;;;3.17;1.20;;;31.90;28.30;;;25.38;32.31;96269.47;5054521;28;20021;-58
2022/05/26 08:10:52;;;;;;;1.25;1.10;;;31.90;28.20;;;25.08;32.34;96271.63;5054398;28;20025;-58
2022/05/26 08:13:19;;;;;;;1.77;1.10;;;31.90;28.00;;;25.12;32.95;96275.28;5054253;28;20040;-58
2022/05/26 08:15:46;;;;;;;3.35;1.20;;;32.20;27.70;;;25.29;32.40;96274.25;5054042;28;20029;-57
2022/05/26 08:18:18;;;;;;;1.20;1.00;;;32.40;27.40;;;25.44;32.97;96275.47;5048268;28;20028;-53
2022/05/26 08:20:47;;;;;;;2.05;1.25;;;32.60;27.10;;;25.54;31.47;96271.47;5048751;28;20383;-52
2022/05/26 08:23:13;;;;;;;3.13;1.10;;;32.80;26.70;;;25.42;31.35;96269.59;5061119;28;20087;-54
2022/05/26 08:25:39;;;;;;;2.80;1.20;;;33.00;26.20;;;25.65;30.96;96274.53;5042442;28;20029;-58
2022/05/26 08:28:06;;;;;;;2.28;1.30;;;33.00;25.90;;;25.90;30.47;96278.00;5037773;28;20029;-57
2022/05/26 08:30:32;;;;;;;2.90;1.05;;;33.00;25.60;;;26.01;30.25;96274.44;5066161;28;20394;-57
2022/05/26 08:33:04;;;;;;;2.20;1.30;;;33.20;25.70;;;26.32;29.41;96275.66;5054473;28;20074;-57
2022/05/26 08:35:33;;;;;;;1.17;1.08;;;33.40;25.40;;;26.21;30.43;96274.59;5058598;28;20141;-54
2022/05/26 08:38:00;;;;;;;2.80;1.13;;;33.60;25.40;;;26.19;30.20;96282.31;5062729;28;20394;-57
2022/05/26 08:40:38;;;;;;;1.23;1.20;;;33.90;24.90;;;26.22;30.68;96278.91;5060725;28;20087;-58
2022/05/26 08:43:21;;;;;;;1.27;1.10;;;34.00;24.70;;;26.24;30.17;96277.41;5037965;28;20100;-57
2022/05/26 08:45:51;;;;;;;1.88;1.30;;;34.20;24.60;;;26.01;31.47;96279.09;5052862;28;20131;-54
2022/05/26 08:48:57;;;;;;;1.52;1.30;;;34.40;24.50;;;26.31;31.15;96288.50;5071840;28;20071;-57
2022/05/26 08:51:49;;;;;;;2.55;1.30;;;34.70;24.40;;;26.22;31.17;96285.16;5063352;28;20108;-58
2022/05/26 08:54:28;;;;;;;4.28;1.58;;;35.00;24.10;;;26.49;30.39;96289.03;5054332;28;20079;-53
2022/05/26 08:57:00;;;;;;;1.55;1.38;;;35.10;24.00;;;26.50;30.43;96281.63;5060437;28;20078;-58
2022/05/26 08:59:36;;;;;;;1.92;1.42;;;35.40;23.60;;;26.79;29.55;96293.28;5054658;28;20033;-57
2022/05/26 09:02:42;;;;;;;1.35;1.10;;;35.60;23.20;;;26.92;29.05;96287.38;5048464;28;20029;-58
2022/05/26 09:05:20;;;;;;;1.63;1.20;;;35.40;23.40;;;26.60;29.01;96291.25;4981621;28;20369;-57
2022/05/26 09:14:04;;;;;;;3.67;1.23;;;34.10;23.70;;;25.75;31.57;96293.13;4989454;28;20121;-57
2022/05/26 09:16:38;;;;;;;2.42;0.90;;;33.60;24.00;;;25.64;31.96;96290.13;5050517;28;20154;-55
2022/05/26 09:19:11;;;;;;;1.35;1.25;;;33.10;24.40;;;25.55;31.62;96292.19;5066010;28;20040;-56
2022/05/26 09:21:38;;;;;;;1.70;1.25;;;32.80;24.60;;;25.94;30.48;96287.09;5051587;28;20043;-57
2022/05/26 09:24:36;;;;;;;2.35;1.52;;;32.80;24.50;;;26.05;30.42;96288.19;5059267;28;20176;-58
2022/05/26 09:27:28;;;;;;;4.43;1.38;;;33.00;24.70;;;25.53;31.37;96288.97;5054765;28;20040;-58
2022/05/26 09:29:54;;;;;;;1.60;1.33;;;33.00;24.50;;;26.02;30.69;96292.41;5065138;28;20032;-55
2022/05/26 09:32:32;;;;;;;1.70;1.40;;;33.20;24.40;;;26.41;30.38;96294.63;5038358;28;20032;-55
2022/05/26 09:35:19;;;;;;;2.03;1.40;;;33.60;24.30;;;27.09;29.45;96293.63;5039536;28;20039;-57
2022/05/26 09:37:52;;;;;;;3.25;2.10;;;34.10;24.10;;;27.56;27.90;96290.84;5051179;28;20028;-55
2022/05/26 09:40:46;;;;;;;3.55;1.50;;;34.80;23.60;;;27.33;28.98;96281.72;5053764;28;20488;-56
2022/05/26 09:43:28;;;;;;;2.03;1.30;;;35.00;23.40;;;26.92;30.48;96292.84;5054523;28;20435;-55
2022/05/26 09:45:58;;;;;;;1.98;1.30;;;34.80;24.10;;;26.45;31.12;96293.59;5073386;28;20098;-56
2022/05/26 09:48:31;;;;;;;1.55;1.45;;;34.40;23.80;;;26.44;31.59;96286.50;5045928;28;20044;-58
2022/05/26 09:51:21;;;;;;;2.60;1.75;;;34.00;24.00;;;26.81;31.54;96291.78;5072398;28;20025;-57
2022/05/26 09:53:48;;;;;;;2.80;1.38;;;34.00;24.30;;;27.05;30.20;96285.34;5072308;28;20108;-55
2022/05/26 09:56:40;;;;;;;4.68;1.20;;;34.10;24.20;;;26.45;30.42;96290.84;5048355;28;20115;-57
2022/05/26 09:59:38;;;;;;;3.00;1.17;;;33.80;24.40;;;26.15;30.04;96287.69;5050328;28;20511;-58
2022/05/26 10:02:34;;;;;;;2.33;1.30;;;33.20;24.50;;;26.64;32.58;96292.94;5054530;28;20036;-49
2022/05/26 10:05:11;;;;;;;1.45;1.35;;;33.30;24.90;;;27.39;29.64;96286.56;5071384;28;20024;-58
2022/05/26 10:08:07;;;;;;;3.35;1.45;;;33.80;24.70;;;27.82;27.90;96284.78;5055407;28;20021;-58
2022/05/26 10:10:59;;;;;;;2.65;1.23;;;34.30;24.10;;;27.33;28.71;96289.94;5052050;28;20100;-58
2022/05/26 10:14:04;;;;;;;3.45;1.85;;;34.30;23.80;;;27.11;29.28;96299.56;5045333;28;20086;-58
2022/05/26 10:16:56;;;;;;;2.35;1.65;;;34.60;23.50;;;27.26;29.15;96296.00;5051826;28;20032;-55
2022/05/26 10:19:25;;;;;;;;;;;35.20;23.00;;;27.54;29.55;96297.81;5046786;28;20025;-53
2022/05/26 10:22:20;;;;;;;1.83;1.50;;;35.60;23.30;;;27.38;28.79;96295.13;5053238;28;20317;-52
2022/05/26 10:25:42;;;;;;;1.92;1.30;;;35.60;22.80;;;27.74;28.21;96287.72;5048190;28;20489;-58
2022/05/26 10:28:45;;;;;;;3.30;1.70;;;35.50;22.80;;;28.30;27.48;96287.31;5023248;28;20021;-58
2022/05/26 10:31:45;;;;;;;2.92;1.58;;;36.00;22.80;;;28.57;26.83;96285.47;5066616;28;20027;-57
2022/05/26 10:34:54;;;;;;;3.28;1.45;;;36.50;22.30;;;28.39;28.22;96282.38;5036237;28;20045;-57
2022/05/26 10:38:16;;;;;;;4.53;1.92;;;37.00;22.10;;;28.14;28.31;96281.91;5030316;28;20032;-54
2022/05/26 10:41:23;;;;;;;2.47;2.28;;;37.40;21.80;;;28.40;28.11;96281.25;5041271;28;20415;-55
2022/05/26 10:44:12;;;;;;;2.03;1.80;;;37.50;21.50;;;28.25;28.85;96277.44;5062871;28;20029;-57
2022/05/26 10:46:54;;;;;;;2.72;1.90;;;37.60;21.60;;;28.98;28.27;96283.03;5039058;28;20119;-56
2022/05/26 10:50:02;;;;;;;2.28;1.70;;;37.70;21.50;;;29.57;27.79;96281.59;5068518;28;20059;-55
2022/05/26 10:52:40;;;;;;;2.05;1.50;;;37.90;21.40;;;29.76;26.43;96277.19;5050340;28;20127;-56
2022/05/26 10:55:17;;;;;;;2.85;1.60;;;38.00;21.40;;;29.45;26.68;96271.63;5054719;28;20040;-53
2022/05/26 10:58:03;;;;;;;2.42;1.60;;;37.40;21.50;;;28.92;27.23;96276.28;5050359;28;20076;-58
2022/05/26 11:00:30;;;;;;;1.92;1.65;;;37.00;21.60;;;28.47;27.94;96275.13;5039072;28;20025;-52
2022/05/26 11:03:24;;;;;;;2.20;2.00;;;36.90;21.50;;;28.48;27.63;96273.94;5055388;28;20375;-53
2022/05/26 11:06:26;;;;;;;2.55;1.70;;;36.70;21.50;;;28.75;26.95;96274.84;5033117;28;20476;-53
2022/05/26 11:09:21;;;;;;;4.10;1.73;;;36.60;21.60;;;28.74;28.56;96267.78;5039409;28;20025;-53
2022/05/26 11:11:57;;;;;;;2.25;1.60;;;36.60;21.90;;;28.80;27.75;96267.09;5050840;28;20059;-55
2022/05/26 11:18:01;;;;;;;2.53;1.60;;;36.60;21.90;;;29.26;27.39;96258.81;5055117;28;20057;-54
2022/05/26 11:20:53;;;;;;;2.83;2.03;;;36.70;22.10;;;29.15;27.06;96268.06;5052278;28;20037;-54
2022/05/26 11:23:24;;;;;;;1.88;1.70;;;36.80;21.80;;;28.23;27.67;96262.50;5051295;28;20111;-58
2022/05/26 11:26:06;;;;;;;4.00;1.90;;;36.80;21.40;;;28.26;28.42;96256.31;5060083;28;20510;-55
2022/05/26 11:28:44;;;;;;;1.80;1.70;;;36.80;22.00;;;28.73;27.75;96263.44;5073597;28;20490;-52
2022/05/26 11:37:28;;;;;;;2.22;2.00;;;37.10;21.20;;;27.96;27.64;96253.41;5067548;28;20510;-58
2022/05/26 11:40:03;;;;;;;1.75;1.60;;;37.00;21.20;;;28.27;28.52;96247.75;5057077;28;20415;-56
2022/05/26 11:43:07;;;;;;;2.13;2.00;;;37.00;21.30;;;29.00;26.43;96258.78;5031066;28;20025;-58
2022/05/26 11:45:47;;;;;;;1.90;1.80;;;37.10;21.30;;;29.50;26.62;96252.13;5056466;28;20036;-60